sensor_id;sensor_type;location;lat;lon;timestamp;P1;durP1;ratioP1;P2;durP2;ratioP2
2564;SDS011;1292;48.020;7.822;2024-03-06T06:47:24;3.67;;;2.90;;
2564;SDS011;1292;48.020;7.822;2024-03-06T06:49:51;3.30;;;2.50;;
2564;SDS011;1292;48.020;7.822;2024-03-06T06:52:17;3.83;;;2.90;;
2564;SDS011;1292;48.020;7.822;2024-03-06T06:54:45;7.40;;;2.80;;
2564;SDS011;1292;48.020;7.822;2024-03-06T06:57:13;3.73;;;3.33;;
2564;SDS011;1292;48.020;7.822;2024-03-06T06:59:40;3.30;;;3.00;;
2564;SDS011;1292;48.020;7.822;2024-03-06T07:02:07;2.33;;;2.13;;
2564;SDS011;1292;48.020;7.822;2024-03-06T07:04:35;2.37;;;2.00;;
2564;SDS011;1292;48.020;7.822;2024-03-06T07:07:02;2.00;;;1.80;;
2564;SDS011;1292;48.020;7.822;2024-03-06T07:09:29;2.63;;;2.00;;
2564;SDS011;1292;48.020;7.822;2024-03-06T07:11:55;2.07;;;1.97;;
2564;SDS011;1292;48.020;7.822;2024-03-06T07:14:23;2.03;;;1.80;;
2564;SDS011;1292;48.020;7.822;2024-03-06T07:16:49;1.90;;;1.67;;
2564;SDS011;1292;48.020;7.822;2024-03-06T07:19:16;1.70;;;1.60;;
2564;SDS011;1292;48.020;7.822;2024-03-06T07:21:44;2.50;;;2.20;;
2564;SDS011;1292;48.020;7.822;2024-03-06T07:24:11;2.07;;;1.63;;
2564;SDS011;1292;48.020;7.822;2024-03-06T07:26:38;2.30;;;2.10;;
2564;SDS011;1292;48.020;7.822;2024-03-06T07:29:05;1.40;;;1.30;;
2564;SDS011;1292;48.020;7.822;2024-03-06T07:31:38;1.93;;;1.73;;
2564;SDS011;1292;48.020;7.822;2024-03-06T07:34:05;1.93;;;1.60;;
2564;SDS011;1292;48.020;7.822;2024-03-06T07:36:33;3.50;;;2.80;;
2564;SDS011;1292;48.020;7.822;2024-03-06T07:39:01;3.17;;;2.40;;
2564;SDS011;1292;48.020;7.822;2024-03-06T07:41:29;3.30;;;2.40;;
2564;SDS011;1292;48.020;7.822;2024-03-06T07:43:57;2.60;;;2.23;;
2564;SDS011;1292;48.020;7.822;2024-03-06T07:46:25;3.03;;;2.37;;
2564;SDS011;1292;48.020;7.822;2024-03-06T07:48:52;2.27;;;2.07;;
2564;SDS011;1292;48.020;7.822;2024-03-06T07:51:19;1.63;;;1.53;;
2564;SDS011;1292;48.020;7.822;2024-03-06T07:53:45;1.93;;;1.80;;
2564;SDS011;1292;48.020;7.822;2024-03-06T07:56:13;2.37;;;1.60;;
2564;SDS011;1292;48.020;7.822;2024-03-06T07:58:40;1.30;;;1.20;;
2564;SDS011;1292;48.020;7.822;2024-03-06T08:01:07;1.40;;;1.30;;
2564;SDS011;1292;48.020;7.822;2024-03-06T08:03:34;1.33;;;1.17;;
2564;SDS011;1292;48.020;7.822;2024-03-06T08:06:01;1.00;;;0.90;;
2564;SDS011;1292;48.020;7.822;2024-03-06T08:08:29;3.27;;;1.57;;
2564;SDS011;1292;48.020;7.822;2024-03-06T08:10:55;1.47;;;1.37;;
2564;SDS011;1292;48.020;7.822;2024-03-06T08:13:23;0.97;;;0.87;;
2564;SDS011;1292;48.020;7.822;2024-03-06T08:15:50;1.53;;;1.20;;
2564;SDS011;1292;48.020;7.822;2024-03-06T08:18:18;1.93;;;1.80;;
2564;SDS011;1292;48.020;7.822;2024-03-06T08:20:44;2.30;;;1.73;;
2564;SDS011;1292;48.020;7.822;2024-03-06T08:23:11;1.77;;;1.67;;
2564;SDS011;1292;48.020;7.822;2024-03-06T08:25:38;3.33;;;1.67;;
2564;SDS011;1292;48.020;7.822;2024-03-06T08:28:05;1.57;;;1.40;;
2564;SDS011;1292;48.020;7.822;2024-03-06T08:30:33;1.70;;;1.60;;
2564;SDS011;1292;48.020;7.822;2024-03-06T08:33:00;1.63;;;1.40;;
2564;SDS011;1292;48.020;7.822;2024-03-06T08:35:27;1.87;;;1.53;;
2564;SDS011;1292;48.020;7.822;2024-03-06T08:37:55;1.87;;;1.77;;
2564;SDS011;1292;48.020;7.822;2024-03-06T08:40:22;1.80;;;1.70;;
2564;SDS011;1292;48.020;7.822;2024-03-06T08:42:50;2.43;;;1.60;;
2564;SDS011;1292;48.020;7.822;2024-03-06T08:45:18;2.13;;;1.67;;
2564;SDS011;1292;48.020;7.822;2024-03-06T08:47:51;1.30;;;1.20;;
2564;SDS011;1292;48.020;7.822;2024-03-06T08:50:19;2.03;;;1.60;;
2564;SDS011;1292;48.020;7.822;2024-03-06T08:52:46;2.10;;;1.60;;
2564;SDS011;1292;48.020;7.822;2024-03-06T08:55:13;2.03;;;1.63;;
2564;SDS011;1292;48.020;7.822;2024-03-06T08:57:40;1.67;;;1.57;;
2564;SDS011;1292;48.020;7.822;2024-03-06T09:00:07;2.10;;;1.43;;
2564;SDS011;1292;48.020;7.822;2024-03-06T09:02:35;1.77;;;1.40;;
2564;SDS011;1292;48.020;7.822;2024-03-06T09:05:05;2.40;;;1.57;;
2564;SDS011;1292;48.020;7.822;2024-03-06T09:07:33;1.90;;;1.80;;
2564;SDS011;1292;48.020;7.822;2024-03-06T09:10:03;1.70;;;1.60;;
2564;SDS011;1292;48.020;7.822;2024-03-06T09:12:31;2.47;;;1.90;;
2564;SDS011;1292;48.020;7.822;2024-03-06T09:14:58;2.50;;;1.37;;
2564;SDS011;1292;48.020;7.822;2024-03-06T09:17:25;1.50;;;1.30;;
2564;SDS011;1292;48.020;7.822;2024-03-06T09:19:54;2.90;;;1.70;;
2564;SDS011;1292;48.020;7.822;2024-03-06T09:22:23;4.63;;;1.83;;
2564;SDS011;1292;48.020;7.822;2024-03-06T09:24:50;1.57;;;1.40;;
2564;SDS011;1292;48.020;7.822;2024-03-06T09:27:17;2.10;;;1.80;;
2564;SDS011;1292;48.020;7.822;2024-03-06T09:32:44;2.60;;;1.70;;
2564;SDS011;1292;48.020;7.822;2024-03-06T09:35:10;2.60;;;1.80;;
2564;SDS011;1292;48.020;7.822;2024-03-06T09:37:40;2.50;;;1.73;;
2564;SDS011;1292;48.020;7.822;2024-03-06T09:40:08;1.43;;;1.33;;
2564;SDS011;1292;48.020;7.822;2024-03-06T09:42:36;2.60;;;2.40;;
2564;SDS011;1292;48.020;7.822;2024-03-06T09:45:03;1.80;;;1.70;;
2564;SDS011;1292;48.020;7.822;2024-03-06T09:47:31;2.10;;;1.90;;
2564;SDS011;1292;48.020;7.822;2024-03-06T09:50:02;6.17;;;2.03;;
2564;SDS011;1292;48.020;7.822;2024-03-06T09:52:31;2.83;;;2.13;;
2564;SDS011;1292;48.020;7.822;2024-03-06T09:55:01;3.40;;;2.00;;
2564;SDS011;1292;48.020;7.822;2024-03-06T09:57:28;5.07;;;1.77;;
2564;SDS011;1292;48.020;7.822;2024-03-06T09:59:56;1.93;;;1.80;;
2564;SDS011;1292;48.020;7.822;2024-03-06T10:02:36;2.77;;;1.53;;
2564;SDS011;1292;48.020;7.822;2024-03-06T10:05:05;2.83;;;1.90;;
2564;SDS011;1292;48.020;7.822;2024-03-06T10:07:33;2.63;;;2.43;;
2564;SDS011;1292;48.020;7.822;2024-03-06T10:10:01;2.03;;;1.83;;
2564;SDS011;1292;48.020;7.822;2024-03-06T10:12:28;2.93;;;1.77;;
2564;SDS011;1292;48.020;7.822;2024-03-06T10:14:55;5.03;;;1.80;;
2564;SDS011;1292;48.020;7.822;2024-03-06T10:17:22;1.83;;;1.73;;
2564;SDS011;1292;48.020;7.822;2024-03-06T10:19:51;3.37;;;1.70;;
2564;SDS011;1292;48.020;7.822;2024-03-06T10:22:18;2.73;;;2.20;;
2564;SDS011;1292;48.020;7.822;2024-03-06T10:24:46;2.00;;;1.80;;
2564;SDS011;1292;48.020;7.822;2024-03-06T10:27:18;4.00;;;1.60;;
2564;SDS011;1292;48.020;7.822;2024-03-06T10:29:44;1.27;;;1.13;;
2564;SDS011;1292;48.020;7.822;2024-03-06T10:32:15;2.13;;;1.83;;
2564;SDS011;1292;48.020;7.822;2024-03-06T10:34:44;1.60;;;1.50;;
2564;SDS011;1292;48.020;7.822;2024-03-06T10:37:11;2.43;;;1.50;;
2564;SDS011;1292;48.020;7.822;2024-03-06T10:39:39;8.30;;;2.37;;
2564;SDS011;1292;48.020;7.822;2024-03-06T10:42:09;1.33;;;1.23;;
2564;SDS011;1292;48.020;7.822;2024-03-06T10:44:42;2.70;;;1.30;;
2564;SDS011;1292;48.020;7.822;2024-03-06T10:47:16;2.23;;;1.50;;
2564;SDS011;1292;48.020;7.822;2024-03-06T10:49:46;2.30;;;1.50;;
2564;SDS011;1292;48.020;7.822;2024-03-06T10:52:13;1.43;;;1.20;;
2564;SDS011;1292;48.020;7.822;2024-03-06T10:54:41;1.93;;;1.17;;
2564;SDS011;1292;48.020;7.822;2024-03-06T10:57:11;2.03;;;1.10;;
2564;SDS011;1292;48.020;7.822;2024-03-06T10:59:39;2.07;;;1.20;;
2564;SDS011;1292;48.020;7.822;2024-03-06T11:02:08;3.63;;;1.73;;
2564;SDS011;1292;48.020;7.822;2024-03-06T11:04:40;2.60;;;1.50;;
2564;SDS011;1292;48.020;7.822;2024-03-06T11:07:11;2.33;;;1.53;;
2564;SDS011;1292;48.020;7.822;2024-03-06T11:09:39;5.90;;;1.00;;
2564;SDS011;1292;48.020;7.822;2024-03-06T11:12:06;2.20;;;1.30;;
2564;SDS011;1292;48.020;7.822;2024-03-06T11:14:35;1.33;;;1.20;;
2564;SDS011;1292;48.020;7.822;2024-03-06T11:17:05;1.90;;;1.10;;
2564;SDS011;1292;48.020;7.822;2024-03-06T11:28:29;3.57;;;1.30;;
2564;SDS011;1292;48.020;7.822;2024-03-06T11:30:57;3.03;;;1.33;;
2564;SDS011;1292;48.020;7.822;2024-03-06T11:33:33;2.87;;;1.10;;
2564;SDS011;1292;48.020;7.822;2024-03-06T11:36:14;2.80;;;1.43;;
2564;SDS011;1292;48.020;7.822;2024-03-06T11:38:46;1.30;;;1.20;;
2564;SDS011;1292;48.020;7.822;2024-03-06T11:41:23;1.70;;;1.20;;
2564;SDS011;1292;48.020;7.822;2024-03-06T11:43:51;3.20;;;1.20;;
2564;SDS011;1292;48.020;7.822;2024-03-06T11:46:19;2.83;;;1.73;;
2564;SDS011;1292;48.020;7.822;2024-03-06T11:48:54;2.20;;;1.40;;
2564;SDS011;1292;48.020;7.822;2024-03-06T11:51:23;3.50;;;1.60;;
2564;SDS011;1292;48.020;7.822;2024-03-06T11:53:51;2.90;;;1.50;;
2564;SDS011;1292;48.020;7.822;2024-03-06T11:56:19;1.97;;;1.17;;
2564;SDS011;1292;48.020;7.822;2024-03-06T11:58:47;1.10;;;1.00;;
2564;SDS011;1292;48.020;7.822;2024-03-06T12:01:14;2.57;;;1.20;;
2564;SDS011;1292;48.020;7.822;2024-03-06T12:03:43;2.43;;;1.50;;
2564;SDS011;1292;48.020;7.822;2024-03-06T12:06:12;2.80;;;1.50;;
2564;SDS011;1292;48.020;7.822;2024-03-06T12:08:39;1.83;;;1.37;;
2564;SDS011;1292;48.020;7.822;2024-03-06T12:11:06;1.37;;;1.10;;
2564;SDS011;1292;48.020;7.822;2024-03-06T12:13:33;1.90;;;1.20;;
2564;SDS011;1292;48.020;7.822;2024-03-06T12:16:03;3.73;;;1.40;;
2564;SDS011;1292;48.020;7.822;2024-03-06T12:18:31;1.30;;;1.20;;
2564;SDS011;1292;48.020;7.822;2024-03-06T12:21:00;4.13;;;1.70;;
2564;SDS011;1292;48.020;7.822;2024-03-06T12:23:30;4.00;;;1.47;;
2564;SDS011;1292;48.020;7.822;2024-03-06T12:26:04;2.33;;;1.80;;
2564;SDS011;1292;48.020;7.822;2024-03-06T12:28:31;1.70;;;1.47;;
2564;SDS011;1292;48.020;7.822;2024-03-06T12:31:01;2.90;;;1.60;;
2564;SDS011;1292;48.020;7.822;2024-03-06T12:33:28;2.43;;;1.50;;
2564;SDS011;1292;48.020;7.822;2024-03-06T12:36:04;2.67;;;1.00;;
2564;SDS011;1292;48.020;7.822;2024-03-06T12:38:36;2.23;;;1.20;;
2564;SDS011;1292;48.020;7.822;2024-03-06T12:41:03;3.63;;;1.63;;
2564;SDS011;1292;48.020;7.822;2024-03-06T12:43:31;3.63;;;1.57;;
2564;SDS011;1292;48.020;7.822;2024-03-06T12:45:59;2.50;;;1.70;;
2564;SDS011;1292;48.020;7.822;2024-03-06T12:48:27;1.67;;;1.30;;
2564;SDS011;1292;48.020;7.822;2024-03-06T12:50:55;1.67;;;1.00;;
2564;SDS011;1292;48.020;7.822;2024-03-06T12:53:29;1.73;;;1.63;;
2564;SDS011;1292;48.020;7.822;2024-03-06T12:55:58;1.77;;;1.00;;
2564;SDS011;1292;48.020;7.822;2024-03-06T12:58:25;2.13;;;1.03;;
2564;SDS011;1292;48.020;7.822;2024-03-06T13:00:52;3.83;;;1.20;;
2564;SDS011;1292;48.020;7.822;2024-03-06T13:03:19;1.67;;;1.30;;
2564;SDS011;1292;48.020;7.822;2024-03-06T13:05:46;3.50;;;1.30;;
2564;SDS011;1292;48.020;7.822;2024-03-06T13:08:13;1.30;;;1.00;;
2564;SDS011;1292;48.020;7.822;2024-03-06T13:10:40;2.50;;;0.90;;
2564;SDS011;1292;48.020;7.822;2024-03-06T13:13:08;1.47;;;1.00;;
2564;SDS011;1292;48.020;7.822;2024-03-06T13:15:35;2.30;;;0.90;;
2564;SDS011;1292;48.020;7.822;2024-03-06T13:18:02;2.10;;;1.00;;
2564;SDS011;1292;48.020;7.822;2024-03-06T13:20:30;5.23;;;1.30;;
2564;SDS011;1292;48.020;7.822;2024-03-06T13:22:57;3.07;;;1.30;;
2564;SDS011;1292;48.020;7.822;2024-03-06T13:25:24;2.60;;;1.37;;
2564;SDS011;1292;48.020;7.822;2024-03-06T13:27:51;1.93;;;1.30;;
2564;SDS011;1292;48.020;7.822;2024-03-06T13:30:20;1.10;;;1.00;;
2564;SDS011;1292;48.020;7.822;2024-03-06T13:32:48;1.90;;;1.00;;
2564;SDS011;1292;48.020;7.822;2024-03-06T13:35:15;2.57;;;1.20;;
2564;SDS011;1292;48.020;7.822;2024-03-06T13:37:42;3.17;;;1.80;;
2564;SDS011;1292;48.020;7.822;2024-03-06T13:40:09;2.30;;;1.23;;
2564;SDS011;1292;48.020;7.822;2024-03-06T13:42:38;1.73;;;1.30;;
2564;SDS011;1292;48.020;7.822;2024-03-06T13:45:05;2.00;;;1.37;;
2564;SDS011;1292;48.020;7.822;2024-03-06T13:47:38;3.13;;;1.50;;
2564;SDS011;1292;48.020;7.822;2024-03-06T13:50:06;2.00;;;1.60;;
2564;SDS011;1292;48.020;7.822;2024-03-06T13:52:34;3.07;;;1.30;;
2564;SDS011;1292;48.020;7.822;2024-03-06T13:55:01;2.33;;;1.90;;
2564;SDS011;1292;48.020;7.822;2024-03-06T13:57:29;1.70;;;1.37;;
2564;SDS011;1292;48.020;7.822;2024-03-06T13:59:58;2.33;;;1.70;;
2564;SDS011;1292;48.020;7.822;2024-03-06T14:02:25;5.50;;;1.57;;
2564;SDS011;1292;48.020;7.822;2024-03-06T14:04:53;2.87;;;1.90;;
2564;SDS011;1292;48.020;7.822;2024-03-06T14:07:20;3.17;;;1.80;;
2564;SDS011;1292;48.020;7.822;2024-03-06T14:09:48;4.10;;;1.87;;
2564;SDS011;1292;48.020;7.822;2024-03-06T14:12:15;3.70;;;2.07;;
2564;SDS011;1292;48.020;7.822;2024-03-06T14:14:42;3.57;;;2.37;;
2564;SDS011;1292;48.020;7.822;2024-03-06T14:17:10;4.13;;;2.40;;
2564;SDS011;1292;48.020;7.822;2024-03-06T14:19:37;2.53;;;2.20;;
2564;SDS011;1292;48.020;7.822;2024-03-06T14:25:19;5.90;;;2.30;;
2564;SDS011;1292;48.020;7.822;2024-03-06T14:27:47;4.03;;;1.80;;
2564;SDS011;1292;48.020;7.822;2024-03-06T14:30:22;2.60;;;1.77;;
2564;SDS011;1292;48.020;7.822;2024-03-06T14:33:04;2.60;;;2.07;;
2564;SDS011;1292;48.020;7.822;2024-03-06T14:35:52;2.40;;;2.07;;
2564;SDS011;1292;48.020;7.822;2024-03-06T14:38:19;4.80;;;4.40;;
2564;SDS011;1292;48.020;7.822;2024-03-06T14:40:47;3.53;;;2.73;;
2564;SDS011;1292;48.020;7.822;2024-03-06T14:43:14;3.37;;;3.07;;
2564;SDS011;1292;48.020;7.822;2024-03-06T14:45:42;6.23;;;3.90;;
2564;SDS011;1292;48.020;7.822;2024-03-06T14:48:10;3.30;;;2.10;;
2564;SDS011;1292;48.020;7.822;2024-03-06T14:50:37;5.07;;;2.20;;
2564;SDS011;1292;48.020;7.822;2024-03-06T14:53:04;2.37;;;1.40;;
2564;SDS011;1292;48.020;7.822;2024-03-06T14:55:32;4.13;;;1.77;;
2564;SDS011;1292;48.020;7.822;2024-03-06T14:58:00;4.10;;;2.10;;
2564;SDS011;1292;48.020;7.822;2024-03-06T15:00:27;3.17;;;1.97;;
2564;SDS011;1292;48.020;7.822;2024-03-06T15:02:56;4.47;;;4.07;;
2564;SDS011;1292;48.020;7.822;2024-03-06T15:05:25;4.30;;;3.10;;
2564;SDS011;1292;48.020;7.822;2024-03-06T15:07:53;2.03;;;1.90;;
2564;SDS011;1292;48.020;7.822;2024-03-06T15:10:20;2.83;;;1.87;;
2564;SDS011;1292;48.020;7.822;2024-03-06T15:12:47;2.60;;;2.00;;
2564;SDS011;1292;48.020;7.822;2024-03-06T15:15:15;3.20;;;2.20;;
2564;SDS011;1292;48.020;7.822;2024-03-06T15:17:43;6.50;;;3.83;;
2564;SDS011;1292;48.020;7.822;2024-03-06T15:20:11;3.07;;;2.83;;
2564;SDS011;1292;48.020;7.822;2024-03-06T15:22:38;3.07;;;2.50;;
2564;SDS011;1292;48.020;7.822;2024-03-06T15:25:07;3.03;;;2.80;;
2564;SDS011;1292;48.020;7.822;2024-03-06T15:27:35;1.73;;;1.40;;
2564;SDS011;1292;48.020;7.822;2024-03-06T15:30:02;2.23;;;1.60;;
2564;SDS011;1292;48.020;7.822;2024-03-06T15:32:30;2.10;;;1.60;;
2564;SDS011;1292;48.020;7.822;2024-03-06T15:34:57;4.10;;;2.07;;
2564;SDS011;1292;48.020;7.822;2024-03-06T15:37:24;2.17;;;1.77;;
2564;SDS011;1292;48.020;7.822;2024-03-06T15:39:52;2.20;;;1.50;;
2564;SDS011;1292;48.020;7.822;2024-03-06T15:42:19;4.57;;;1.87;;
2564;SDS011;1292;48.020;7.822;2024-03-06T15:44:47;2.40;;;2.03;;
2564;SDS011;1292;48.020;7.822;2024-03-06T15:47:15;7.03;;;4.63;;
2564;SDS011;1292;48.020;7.822;2024-03-06T15:49:44;6.30;;;4.50;;
2564;SDS011;1292;48.020;7.822;2024-03-06T15:52:11;9.77;;;3.93;;
2564;SDS011;1292;48.020;7.822;2024-03-06T15:54:40;3.70;;;2.30;;
2564;SDS011;1292;48.020;7.822;2024-03-06T15:57:08;4.40;;;2.63;;
2564;SDS011;1292;48.020;7.822;2024-03-06T15:59:36;3.70;;;3.03;;
2564;SDS011;1292;48.020;7.822;2024-03-06T16:02:03;2.30;;;2.10;;
2564;SDS011;1292;48.020;7.822;2024-03-06T16:04:30;3.07;;;2.00;;
2564;SDS011;1292;48.020;7.822;2024-03-06T16:06:59;5.27;;;3.23;;
2564;SDS011;1292;48.020;7.822;2024-03-06T16:09:25;3.50;;;2.57;;
2564;SDS011;1292;48.020;7.822;2024-03-06T16:11:53;2.60;;;2.40;;
2564;SDS011;1292;48.020;7.822;2024-03-06T16:14:19;2.57;;;2.23;;
2564;SDS011;1292;48.020;7.822;2024-03-06T16:16:47;4.80;;;3.63;;
2564;SDS011;1292;48.020;7.822;2024-03-06T16:19:14;3.37;;;2.93;;
2564;SDS011;1292;48.020;7.822;2024-03-06T16:21:41;5.77;;;2.77;;
2564;SDS011;1292;48.020;7.822;2024-03-06T16:24:09;2.20;;;2.00;;
2564;SDS011;1292;48.020;7.822;2024-03-06T16:26:36;2.43;;;2.20;;
2564;SDS011;1292;48.020;7.822;2024-03-06T16:29:03;3.00;;;2.70;;
2564;SDS011;1292;48.020;7.822;2024-03-06T16:31:30;3.40;;;2.37;;
2564;SDS011;1292;48.020;7.822;2024-03-06T16:33:57;2.90;;;2.60;;
2564;SDS011;1292;48.020;7.822;2024-03-06T16:36:24;2.60;;;2.40;;
2564;SDS011;1292;48.020;7.822;2024-03-06T16:38:50;4.57;;;2.57;;
2564;SDS011;1292;48.020;7.822;2024-03-06T16:41:18;3.93;;;2.57;;
2564;SDS011;1292;48.020;7.822;2024-03-06T16:43:45;3.30;;;2.47;;
2564;SDS011;1292;48.020;7.822;2024-03-06T16:46:12;4.20;;;2.17;;
2564;SDS011;1292;48.020;7.822;2024-03-06T16:48:39;5.93;;;2.47;;
2564;SDS011;1292;48.020;7.822;2024-03-06T16:51:06;5.60;;;3.77;;
2564;SDS011;1292;48.020;7.822;2024-03-06T16:53:34;3.40;;;3.10;;
2564;SDS011;1292;48.020;7.822;2024-03-06T16:56:01;6.70;;;2.77;;
2564;SDS011;1292;48.020;7.822;2024-03-06T16:58:29;8.00;;;2.83;;
2564;SDS011;1292;48.020;7.822;2024-03-06T17:00:57;14.00;;;12.53;;
2564;SDS011;1292;48.020;7.822;2024-03-06T17:03:24;4.30;;;3.90;;
2564;SDS011;1292;48.020;7.822;2024-03-06T17:05:51;9.43;;;6.07;;
2564;SDS011;1292;48.020;7.822;2024-03-06T17:08:18;7.23;;;6.63;;
2564;SDS011;1292;48.020;7.822;2024-03-06T17:10:45;5.37;;;4.50;;
2564;SDS011;1292;48.020;7.822;2024-03-06T17:13:13;4.33;;;3.93;;
2564;SDS011;1292;48.020;7.822;2024-03-06T17:15:41;7.47;;;3.43;;
2564;SDS011;1292;48.020;7.822;2024-03-06T17:18:09;3.13;;;2.87;;
2564;SDS011;1292;48.020;7.822;2024-03-06T17:20:36;8.40;;;4.83;;
2564;SDS011;1292;48.020;7.822;2024-03-06T17:23:04;4.77;;;3.53;;
2564;SDS011;1292;48.020;7.822;2024-03-06T17:25:32;3.63;;;2.60;;
2564;SDS011;1292;48.020;7.822;2024-03-06T17:27:59;3.50;;;2.77;;
2564;SDS011;1292;48.020;7.822;2024-03-06T17:30:26;3.43;;;2.80;;
2564;SDS011;1292;48.020;7.822;2024-03-06T17:32:54;2.50;;;2.30;;
2564;SDS011;1292;48.020;7.822;2024-03-06T17:35:21;4.10;;;3.80;;
2564;SDS011;1292;48.020;7.822;2024-03-06T17:37:48;5.23;;;4.77;;
2564;SDS011;1292;48.020;7.822;2024-03-06T17:40:15;12.90;;;11.80;;
2564;SDS011;1292;48.020;7.822;2024-03-06T17:42:42;16.90;;;15.10;;
2564;SDS011;1292;48.020;7.822;2024-03-06T17:45:09;10.20;;;8.43;;
2564;SDS011;1292;48.020;7.822;2024-03-06T17:47:36;16.23;;;14.20;;
2564;SDS011;1292;48.020;7.822;2024-03-06T17:50:06;13.33;;;11.93;;
2564;SDS011;1292;48.020;7.822;2024-03-06T17:52:37;20.67;;;18.63;;
2564;SDS011;1292;48.020;7.822;2024-03-06T17:55:04;9.20;;;8.20;;
2564;SDS011;1292;48.020;7.822;2024-03-06T17:57:31;9.77;;;7.33;;
2564;SDS011;1292;48.020;7.822;2024-03-06T17:59:58;7.83;;;6.50;;
2564;SDS011;1292;48.020;7.822;2024-03-06T18:02:25;4.70;;;4.00;;
2564;SDS011;1292;48.020;7.822;2024-03-06T18:04:52;4.30;;;3.90;;
2564;SDS011;1292;48.020;7.822;2024-03-06T18:07:20;5.50;;;4.97;;
2564;SDS011;1292;48.020;7.822;2024-03-06T18:09:47;6.00;;;4.73;;
2564;SDS011;1292;48.020;7.822;2024-03-06T18:12:15;5.83;;;5.20;;
2564;SDS011;1292;48.020;7.822;2024-03-06T18:14:42;7.17;;;5.20;;
2564;SDS011;1292;48.020;7.822;2024-03-06T18:17:09;4.77;;;4.37;;
2564;SDS011;1292;48.020;7.822;2024-03-06T18:19:36;5.47;;;3.87;;
2564;SDS011;1292;48.020;7.822;2024-03-06T18:22:03;5.53;;;5.03;;
2564;SDS011;1292;48.020;7.822;2024-03-06T18:24:34;4.23;;;3.83;;
2564;SDS011;1292;48.020;7.822;2024-03-06T18:27:01;4.53;;;4.10;;
2564;SDS011;1292;48.020;7.822;2024-03-06T18:29:28;5.00;;;4.37;;
2564;SDS011;1292;48.020;7.822;2024-03-06T18:31:55;5.60;;;4.13;;
2564;SDS011;1292;48.020;7.822;2024-03-06T18:34:21;4.97;;;4.43;;
2564;SDS011;1292;48.020;7.822;2024-03-06T18:36:49;4.20;;;3.80;;
2564;SDS011;1292;48.020;7.822;2024-03-06T18:39:16;4.13;;;3.73;;
2564;SDS011;1292;48.020;7.822;2024-03-06T18:41:44;4.70;;;4.30;;
2564;SDS011;1292;48.020;7.822;2024-03-06T18:44:11;4.83;;;4.43;;
2564;SDS011;1292;48.020;7.822;2024-03-06T18:46:38;5.73;;;5.00;;
2564;SDS011;1292;48.020;7.822;2024-03-06T18:49:05;4.70;;;3.93;;
2564;SDS011;1292;48.020;7.822;2024-03-06T18:51:32;5.30;;;4.37;;
2564;SDS011;1292;48.020;7.822;2024-03-06T18:54:00;5.10;;;4.60;;
2564;SDS011;1292;48.020;7.822;2024-03-06T18:56:27;7.73;;;6.27;;
2564;SDS011;1292;48.020;7.822;2024-03-06T18:58:55;10.23;;;4.80;;
2564;SDS011;1292;48.020;7.822;2024-03-06T19:01:22;7.77;;;5.07;;
2564;SDS011;1292;48.020;7.822;2024-03-06T19:03:50;4.67;;;4.27;;
2564;SDS011;1292;48.020;7.822;2024-03-06T19:06:17;5.97;;;4.87;;
2564;SDS011;1292;48.020;7.822;2024-03-06T19:08:44;6.63;;;5.63;;
2564;SDS011;1292;48.020;7.822;2024-03-06T19:11:11;8.20;;;6.80;;
2564;SDS011;1292;48.020;7.822;2024-03-06T19:13:38;7.70;;;6.40;;
2564;SDS011;1292;48.020;7.822;2024-03-06T19:16:07;6.43;;;5.73;;
2564;SDS011;1292;48.020;7.822;2024-03-06T19:18:35;8.80;;;6.33;;
2564;SDS011;1292;48.020;7.822;2024-03-06T19:21:02;10.00;;;6.50;;
2564;SDS011;1292;48.020;7.822;2024-03-06T19:23:29;8.17;;;6.73;;
2564;SDS011;1292;48.020;7.822;2024-03-06T19:25:56;6.30;;;5.80;;
2564;SDS011;1292;48.020;7.822;2024-03-06T19:28:23;8.63;;;7.70;;
2564;SDS011;1292;48.020;7.822;2024-03-06T19:30:49;8.53;;;7.63;;
2564;SDS011;1292;48.020;7.822;2024-03-06T19:33:18;10.10;;;8.40;;
2564;SDS011;1292;48.020;7.822;2024-03-06T19:35:44;8.80;;;7.77;;
2564;SDS011;1292;48.020;7.822;2024-03-06T19:38:11;8.60;;;7.70;;
2564;SDS011;1292;48.020;7.822;2024-03-06T19:40:40;9.77;;;8.57;;
2564;SDS011;1292;48.020;7.822;2024-03-06T19:43:07;7.93;;;7.17;;
2564;SDS011;1292;48.020;7.822;2024-03-06T19:45:35;10.63;;;9.30;;
2564;SDS011;1292;48.020;7.822;2024-03-06T19:48:02;9.73;;;8.73;;
2564;SDS011;1292;48.020;7.822;2024-03-06T19:50:31;7.60;;;6.90;;
2564;SDS011;1292;48.020;7.822;2024-03-06T19:52:57;7.10;;;6.40;;
2564;SDS011;1292;48.020;7.822;2024-03-06T19:55:24;8.83;;;6.13;;
2564;SDS011;1292;48.020;7.822;2024-03-06T19:57:52;5.53;;;5.03;;
2564;SDS011;1292;48.020;7.822;2024-03-06T20:00:19;5.90;;;5.30;;
2564;SDS011;1292;48.020;7.822;2024-03-06T20:02:46;7.67;;;6.50;;
2564;SDS011;1292;48.020;7.822;2024-03-06T20:05:12;5.87;;;5.30;;
2564;SDS011;1292;48.020;7.822;2024-03-06T20:07:41;6.03;;;5.53;;
2564;SDS011;1292;48.020;7.822;2024-03-06T20:10:08;6.77;;;6.17;;
2564;SDS011;1292;48.020;7.822;2024-03-06T20:12:35;6.83;;;6.13;;
2564;SDS011;1292;48.020;7.822;2024-03-06T20:15:02;6.27;;;5.67;;
2564;SDS011;1292;48.020;7.822;2024-03-06T20:17:30;13.87;;;10.93;;
2564;SDS011;1292;48.020;7.822;2024-03-06T20:19:59;22.20;;;11.83;;
2564;SDS011;1292;48.020;7.822;2024-03-06T20:22:53;6.50;;;5.73;;
2564;SDS011;1292;48.020;7.822;2024-03-06T20:25:25;7.23;;;5.80;;
2564;SDS011;1292;48.020;7.822;2024-03-06T20:27:51;6.20;;;5.27;;
2564;SDS011;1292;48.020;7.822;2024-03-06T20:30:18;8.00;;;6.10;;
2564;SDS011;1292;48.020;7.822;2024-03-06T20:32:46;5.43;;;4.90;;
2564;SDS011;1292;48.020;7.822;2024-03-06T20:35:13;6.57;;;5.47;;
2564;SDS011;1292;48.020;7.822;2024-03-06T20:37:45;7.80;;;5.13;;
2564;SDS011;1292;48.020;7.822;2024-03-06T20:40:13;7.47;;;4.50;;
2564;SDS011;1292;48.020;7.822;2024-03-06T20:42:40;4.37;;;3.97;;
2564;SDS011;1292;48.020;7.822;2024-03-06T20:45:08;5.57;;;5.07;;
2564;SDS011;1292;48.020;7.822;2024-03-06T20:47:35;7.13;;;4.43;;
2564;SDS011;1292;48.020;7.822;2024-03-06T20:50:02;5.00;;;4.53;;
2564;SDS011;1292;48.020;7.822;2024-03-06T20:52:30;7.00;;;5.40;;
2564;SDS011;1292;48.020;7.822;2024-03-06T20:54:57;6.47;;;5.87;;
2564;SDS011;1292;48.020;7.822;2024-03-06T20:57:25;4.73;;;4.33;;
2564;SDS011;1292;48.020;7.822;2024-03-06T20:59:52;7.40;;;4.73;;
2564;SDS011;1292;48.020;7.822;2024-03-06T21:02:19;5.90;;;4.60;;
2564;SDS011;1292;48.020;7.822;2024-03-06T21:04:46;5.27;;;4.53;;
2564;SDS011;1292;48.020;7.822;2024-03-06T21:07:13;4.87;;;4.47;;
2564;SDS011;1292;48.020;7.822;2024-03-06T21:09:40;5.60;;;4.70;;
2564;SDS011;1292;48.020;7.822;2024-03-06T21:12:07;7.90;;;5.43;;
2564;SDS011;1292;48.020;7.822;2024-03-06T21:14:36;5.43;;;4.23;;
2564;SDS011;1292;48.020;7.822;2024-03-06T21:17:06;5.43;;;4.70;;
2564;SDS011;1292;48.020;7.822;2024-03-06T21:19:34;6.83;;;5.33;;
2564;SDS011;1292;48.020;7.822;2024-03-06T21:22:02;7.30;;;5.40;;
2564;SDS011;1292;48.020;7.822;2024-03-06T21:24:29;10.43;;;6.30;;
2564;SDS011;1292;48.020;7.822;2024-03-06T21:26:57;7.90;;;6.67;;
2564;SDS011;1292;48.020;7.822;2024-03-06T21:29:24;9.60;;;6.83;;
2564;SDS011;1292;48.020;7.822;2024-03-06T21:31:53;12.30;;;6.77;;
2564;SDS011;1292;48.020;7.822;2024-03-06T21:34:20;6.70;;;5.93;;
2564;SDS011;1292;48.020;7.822;2024-03-06T21:36:47;7.17;;;6.33;;
2564;SDS011;1292;48.020;7.822;2024-03-06T21:39:14;7.30;;;6.37;;
2564;SDS011;1292;48.020;7.822;2024-03-06T21:41:41;6.80;;;6.10;;
2564;SDS011;1292;48.020;7.822;2024-03-06T21:44:09;7.97;;;6.70;;
2564;SDS011;1292;48.020;7.822;2024-03-06T21:46:43;8.40;;;7.60;;
2564;SDS011;1292;48.020;7.822;2024-03-06T21:49:22;6.70;;;6.00;;
2564;SDS011;1292;48.020;7.822;2024-03-06T21:51:49;9.87;;;7.10;;
2564;SDS011;1292;48.020;7.822;2024-03-06T21:54:17;8.27;;;6.20;;
2564;SDS011;1292;48.020;7.822;2024-03-06T21:56:44;7.10;;;5.50;;
2564;SDS011;1292;48.020;7.822;2024-03-06T21:59:11;7.80;;;6.70;;
2564;SDS011;1292;48.020;7.822;2024-03-06T22:01:39;7.17;;;5.70;;
2564;SDS011;1292;48.020;7.822;2024-03-06T22:04:12;5.97;;;4.47;;
2564;SDS011;1292;48.020;7.822;2024-03-06T22:06:39;7.30;;;5.03;;
2564;SDS011;1292;48.020;7.822;2024-03-06T22:09:07;4.83;;;4.07;;
2564;SDS011;1292;48.020;7.822;2024-03-06T22:11:39;5.23;;;4.23;;
2564;SDS011;1292;48.020;7.822;2024-03-06T22:14:07;5.40;;;4.70;;
2564;SDS011;1292;48.020;7.822;2024-03-06T22:16:35;5.63;;;5.17;;
2564;SDS011;1292;48.020;7.822;2024-03-06T22:19:03;6.27;;;5.67;;
2564;SDS011;1292;48.020;7.822;2024-03-06T22:21:33;5.43;;;4.93;;